createdAt,value
2022-09-28T00:01:18.108Z,5.72
2022-09-28T00:07:10.410Z,5.93
2022-09-28T00:13:02.947Z,6.20
2022-09-28T00:18:55.424Z,6.07
2022-09-28T00:24:46.905Z,6.28
2022-09-28T00:30:39.418Z,7.40
2022-09-28T00:36:31.678Z,8.02
2022-09-28T00:42:25.616Z,7.73
2022-09-28T00:48:17.998Z,8.00
2022-09-28T00:54:11.717Z,7.68
2022-09-28T01:00:04.928Z,7.82
2022-09-28T01:05:59.349Z,8.20
2022-09-28T01:11:51.898Z,7.28
2022-09-28T01:17:50.658Z,8.17
2022-09-28T01:23:49.097Z,7.85
2022-09-28T01:29:51.163Z,9.02
2022-09-28T01:35:47.961Z,8.05
2022-09-28T01:41:41.505Z,8.43
2022-09-28T01:47:35.159Z,8.65
2022-09-28T01:53:41.818Z,8.43
2022-09-28T01:59:43.797Z,10.65
2022-09-28T02:05:37.747Z,9.57
2022-09-28T02:11:33.597Z,10.10
2022-09-28T02:17:26.865Z,9.63
2022-09-28T02:23:22.697Z,9.98
2022-09-28T02:29:15.351Z,9.57
2022-09-28T02:35:18.445Z,10.23
2022-09-28T02:41:27.507Z,11.57
2022-09-28T02:47:31.817Z,11.35
2022-09-28T02:53:30.796Z,10.43
2022-09-28T02:59:25.326Z,10.25
2022-09-28T03:05:30.312Z,9.73
2022-09-28T03:11:28.971Z,9.50
2022-09-28T03:17:21.697Z,10.00
2022-09-28T03:23:24.659Z,9.77
2022-09-28T03:29:17.964Z,10.70
2022-09-28T03:35:12.687Z,10.38
2022-09-28T03:41:04.707Z,10.45
2022-09-28T03:47:01.010Z,10.63
2022-09-28T03:52:54.544Z,11.03
2022-09-28T03:58:46.721Z,12.35
2022-09-28T04:04:38.793Z,12.75
2022-09-28T04:10:31.635Z,12.52
2022-09-28T04:16:24.182Z,10.52
2022-09-28T04:22:37.896Z,10.63
2022-09-28T04:28:48.545Z,9.90
2022-09-28T04:34:44.096Z,10.00
2022-09-28T04:40:37.249Z,10.48
2022-09-28T04:46:29.692Z,10.25
2022-09-28T04:52:48.117Z,11.43
2022-09-28T04:58:40.795Z,10.38
2022-09-28T05:04:32.787Z,10.77
2022-09-28T05:10:37.240Z,10.30
2022-09-28T05:16:34.057Z,11.18
2022-09-28T05:22:45.254Z,10.40
2022-09-28T05:28:39.183Z,10.70
2022-09-28T05:35:11.344Z,10.43
2022-09-28T05:41:07.242Z,10.50
2022-09-28T05:46:59.805Z,11.45
2022-09-28T05:52:58.744Z,10.35
2022-09-28T05:58:51.083Z,6.88
2022-09-28T06:04:44.874Z,5.57
2022-09-28T06:10:37.435Z,4.75
2022-09-28T06:16:30.327Z,4.40
2022-09-28T06:22:22.994Z,4.67
2022-09-28T06:28:41.305Z,3.38
2022-09-28T06:34:35.147Z,3.73
2022-09-28T06:40:27.596Z,4.18
2022-09-28T06:46:21.110Z,3.72
2022-09-28T06:52:34.266Z,4.03
2022-09-28T06:58:49.045Z,3.60
2022-09-28T07:04:43.832Z,3.43
2022-09-28T07:10:58.426Z,3.30
2022-09-28T07:17:14.493Z,3.03
2022-09-28T07:23:18.023Z,2.60
2022-09-28T07:29:31.107Z,2.33
2022-09-28T07:35:50.966Z,2.50
2022-09-28T07:41:44.505Z,2.17
2022-09-28T07:47:37.587Z,1.80
2022-09-28T07:53:48.618Z,2.10
2022-09-28T08:00:02.534Z,1.73
2022-09-28T08:06:11.455Z,1.90
2022-09-28T08:12:05.037Z,1.60
2022-09-28T08:18:04.495Z,2.10
2022-09-28T08:23:57.130Z,2.00
2022-09-28T08:29:49.270Z,2.07
2022-09-28T08:36:05.405Z,2.08
2022-09-28T08:42:23.244Z,1.75
2022-09-28T08:48:49.016Z,2.13
2022-09-28T08:55:13.655Z,1.50
2022-09-28T09:01:14.412Z,2.00
2022-09-28T09:07:19.984Z,1.33
2022-09-28T09:13:45.936Z,1.40
2022-09-28T09:19:59.321Z,1.50
2022-09-28T09:26:25.528Z,1.20
2022-09-28T09:32:37.052Z,1.40
2022-09-28T09:38:40.111Z,0.85
2022-09-28T09:45:09.784Z,1.40
2022-09-28T09:51:37.804Z,1.23
2022-09-28T09:57:32.479Z,0.67
2022-09-28T10:03:43.050Z,0.60
2022-09-28T10:09:42.726Z,0.60
2022-09-28T10:15:55.735Z,0.68
2022-09-28T10:21:53.737Z,0.77
2022-09-28T10:27:53.132Z,1.50
2022-09-28T10:33:45.785Z,1.05
2022-09-28T10:39:41.346Z,0.70
2022-09-28T10:45:35.590Z,0.70
2022-09-28T10:51:40.466Z,1.30
2022-09-28T10:57:35.231Z,0.90
2022-09-28T11:03:33.035Z,0.98
2022-09-28T11:09:34.886Z,1.15
2022-09-28T11:15:33.716Z,1.13
2022-09-28T11:21:32.943Z,1.13
2022-09-28T11:27:28.073Z,0.70
2022-09-28T11:33:33.295Z,0.77
2022-09-28T11:39:51.593Z,0.70
2022-09-28T11:45:46.998Z,1.23
2022-09-28T11:51:41.635Z,1.20
2022-09-28T11:57:38.235Z,1.88
2022-09-28T12:03:40.368Z,1.65
2022-09-28T12:09:37.309Z,2.30
2022-09-28T12:22:32.388Z,1.33
2022-09-28T12:28:46.256Z,1.58
2022-09-28T12:34:38.344Z,1.35
2022-09-28T12:40:33.278Z,1.20
2022-09-28T12:46:42.623Z,1.10
2022-09-28T12:52:35.330Z,1.20
2022-09-28T12:58:48.516Z,1.60
2022-09-28T13:05:09.737Z,2.15
2022-09-28T13:11:21.857Z,2.45
2022-09-28T13:17:33.088Z,1.60
2022-09-28T13:23:31.467Z,1.33
2022-09-28T13:29:23.979Z,1.75
2022-09-28T13:35:20.745Z,1.40
2022-09-28T13:41:15.915Z,1.20
2022-09-28T13:47:08.885Z,2.05
2022-09-28T13:53:12.636Z,3.00
2022-09-28T14:05:00.359Z,3.40
2022-09-28T14:10:54.128Z,4.20
2022-09-28T14:16:46.755Z,4.30
2022-09-28T14:22:48.337Z,4.43
2022-09-28T14:29:16.545Z,4.03
2022-09-28T14:35:18.741Z,4.90
2022-09-28T14:41:14.358Z,4.50
2022-09-28T14:47:25.285Z,5.18
2022-09-28T14:53:21.315Z,2.33
2022-09-28T14:59:24.695Z,2.30
2022-09-28T15:05:18.543Z,2.40
2022-09-28T15:11:19.948Z,2.40
2022-09-28T15:17:13.647Z,2.30
2022-09-28T15:23:05.916Z,2.30
2022-09-28T15:28:57.896Z,2.45
2022-09-28T15:34:52.276Z,2.20
2022-09-28T15:40:45.254Z,1.90
2022-09-28T15:46:38.936Z,2.23
2022-09-28T15:52:36.779Z,2.03
2022-09-28T15:58:29.295Z,2.22
2022-09-28T16:04:40.281Z,2.50
2022-09-28T16:10:33.938Z,3.00
2022-09-28T16:16:30.917Z,3.00
2022-09-28T16:22:28.598Z,4.63
2022-09-28T16:28:26.805Z,4.68
2022-09-28T16:34:26.075Z,4.30
2022-09-28T16:40:20.478Z,2.53
2022-09-28T16:46:14.601Z,2.92
2022-09-28T16:52:13.967Z,3.67
2022-09-28T16:58:06.955Z,2.67
2022-09-28T17:03:59.177Z,2.78
2022-09-28T17:09:52.736Z,4.47
2022-09-28T17:15:50.465Z,6.22
2022-09-28T17:21:43.151Z,5.93
2022-09-28T17:27:34.995Z,5.97
2022-09-28T17:33:26.782Z,4.35
2022-09-28T17:39:19.447Z,6.22
2022-09-28T17:45:12.285Z,6.47
2022-09-28T17:51:05.975Z,5.72
2022-09-28T17:56:59.365Z,5.03
2022-09-28T18:02:57.596Z,4.05
2022-09-28T18:08:51.273Z,4.10
2022-09-28T18:14:43.097Z,6.10
2022-09-28T18:20:36.056Z,8.15
2022-09-28T18:26:28.227Z,10.40
2022-09-28T18:32:20.302Z,8.77
2022-09-28T18:38:12.409Z,13.43
2022-09-28T18:44:05.622Z,9.53
2022-09-28T18:49:58.787Z,8.75
2022-09-28T18:55:51.560Z,9.52
2022-09-28T19:01:44.579Z,9.53
2022-09-28T19:07:37.387Z,9.48
2022-09-28T19:13:29.515Z,11.82
2022-09-28T19:19:21.532Z,12.60
2022-09-28T19:25:16.117Z,12.27
2022-09-28T19:31:11.726Z,12.98
2022-09-28T19:37:04.555Z,13.10
2022-09-28T19:42:56.616Z,13.00
2022-09-28T19:48:49.444Z,14.98
2022-09-28T19:54:44.051Z,18.10
2022-09-28T20:00:37.457Z,16.33
2022-09-28T20:06:31.059Z,17.97
2022-09-28T20:18:17.343Z,13.68
2022-09-28T20:24:11.156Z,14.18
2022-09-28T20:30:03.759Z,10.35
2022-09-28T20:35:56.856Z,10.18
2022-09-28T20:41:49.916Z,10.90
2022-09-28T20:47:43.316Z,10.53
2022-09-28T20:53:35.613Z,10.07
2022-09-28T20:59:28.364Z,10.40
2022-09-28T21:05:20.665Z,10.13
2022-09-28T21:11:13.508Z,11.32
2022-09-28T21:17:05.586Z,11.30
2022-09-28T21:22:57.903Z,12.25
2022-09-28T21:28:55.356Z,12.20
2022-09-28T21:34:47.657Z,11.40
2022-09-28T21:40:39.867Z,10.32
2022-09-28T21:46:34.972Z,11.68
2022-09-28T21:52:27.944Z,12.73
2022-09-28T21:58:24.361Z,12.07
2022-09-28T22:04:17.514Z,10.23
2022-09-28T22:10:12.636Z,9.13
2022-09-28T22:16:04.916Z,10.25
2022-09-28T22:21:57.943Z,10.77
2022-09-28T22:27:49.915Z,9.05
2022-09-28T22:33:41.927Z,8.40
2022-09-28T22:39:37.500Z,8.90
2022-09-28T22:45:30.664Z,8.85
2022-09-28T22:51:24.015Z,8.43
2022-09-28T22:57:15.915Z,12.27
2022-09-28T23:03:07.893Z,14.02
2022-09-28T23:09:01.153Z,12.80
2022-09-28T23:14:53.796Z,10.48
2022-09-28T23:20:52.497Z,9.82
2022-09-28T23:26:44.621Z,9.55
2022-09-28T23:32:37.227Z,9.20
2022-09-28T23:38:29.973Z,11.05
2022-09-28T23:44:24.416Z,9.25
2022-09-28T23:50:16.843Z,9.18
2022-09-28T23:56:09.130Z,8.73
